Time;durP1;ratioP1;P1;durP2;ratioP2;P2;SDS_P1;SDS_P2;PMS_P1;PMS_P2;Temp;Humidity;BMP_temperature;BMP_pressure;BME280_temperature;BME280_humidity;BME280_pressure;Samples;Min_cycle;Max_cycle;Signal;HPM_P1;HPM_P2
2022/06/12 00:00:33;;;;;;;;;3.25;3.00;;;;;20.70;45.87;101993.97;5041148;28;45530;-70
2022/06/12 00:03:00;;;;;;;;;2.75;2.50;;;;;20.73;45.93;102003.75;5054927;28;47511;-70
2022/06/12 00:05:30;;;;;;;;;1.00;1.00;;;;;20.69;45.28;102003.03;5057702;28;45291;-70
2022/06/12 00:07:56;;;;;;;;;2.25;1.00;;;;;20.66;45.71;102005.91;5042366;28;45475;-70
2022/06/12 00:10:21;;;;;;;;;2.00;1.00;;;;;20.61;46.25;102004.41;5041983;28;45641;-70
2022/06/12 00:12:48;;;;;;;;;2.00;2.00;;;;;20.69;45.71;102004.91;5041683;28;45503;-70
2022/06/12 00:15:17;;;;;;;;;0.00;0.00;;;;;20.65;45.74;102001.47;5042123;28;45475;-69
2022/06/12 00:17:43;;;;;;;;;2.25;2.25;;;;;20.66;46.18;101995.06;5041781;28;45462;-70
2022/06/12 00:20:12;;;;;;;;;1.50;1.00;;;;;20.64;45.39;101997.00;5057484;28;45437;-70
2022/06/12 00:22:38;;;;;;;;;3.50;2.00;;;;;20.63;45.84;102003.41;5040940;28;45421;-70
2022/06/12 00:25:06;;;;;;;;;1.00;1.00;;;;;20.59;45.54;102001.78;5041687;28;45329;-70
2022/06/12 00:27:32;;;;;;;;;0.75;0.75;;;;;20.43;45.84;101981.88;5043703;28;45375;-70
2022/06/12 00:29:57;;;;;;;;;2.75;1.75;;;;;20.44;46.03;101998.06;5041381;28;45300;-70
2022/06/12 00:32:24;;;;;;;;;1.00;1.00;;;;;20.33;45.67;101995.94;5039794;28;45525;-70
2022/06/12 00:34:52;;;;;;;;;1.00;1.00;;;;;20.31;46.07;101997.84;5041789;28;45295;-70
2022/06/12 00:37:21;;;;;;;;;1.00;1.00;;;;;20.28;45.86;101995.31;5041794;28;45292;-70
2022/06/12 00:39:50;;;;;;;;;3.75;1.25;;;;;20.27;46.23;101993.53;5050408;28;45387;-70
2022/06/12 00:42:30;;;;;;;;;1.75;1.75;;;;;20.35;46.23;102010.28;5041233;28;45643;-70
2022/06/12 00:44:59;;;;;;;;;1.00;1.00;;;;;20.36;46.59;102014.75;5041011;28;45331;-70
2022/06/12 00:47:26;;;;;;;;;3.75;2.00;;;;;20.35;46.11;102012.13;5040002;28;45364;-70
2022/06/12 00:49:59;;;;;;;;;2.00;1.00;;;;;20.34;46.07;102011.22;5041356;28;45158;-70
2022/06/12 00:52:42;;;;;;;;;0.00;0.00;;;;;20.33;46.32;102011.31;5041428;28;46181;-70
2022/06/12 00:55:24;;;;;;;;;3.00;0.75;;;;;20.28;46.34;102006.16;5041431;28;45339;-70
2022/06/12 00:57:50;;;;;;;;;3.00;1.00;;;;;20.18;46.26;101994.06;5040746;28;45445;-70
2022/06/12 01:00:17;;;;;;;;;1.75;1.50;;;;;20.16;46.72;102004.06;5056589;28;45851;-70
2022/06/12 01:02:43;;;;;;;;;1.25;1.00;;;;;20.15;46.29;102003.22;5040060;28;45462;-70
2022/06/12 01:07:59;;;;;;;;;1.00;1.00;;;;;20.06;46.44;101992.84;5041269;28;45352;-70
2022/06/12 01:10:28;;;;;;;;;1.25;0.25;;;;;20.12;46.82;101994.38;5041153;28;45355;-70
2022/06/12 01:13:13;;;;;;;;;1.75;0.75;;;;;20.09;46.48;101998.09;5040425;28;45408;-69
2022/06/12 01:15:47;;;;;;;;;2.75;2.75;;;;;20.09;46.61;102002.66;5041056;28;45461;-69
2022/06/12 01:18:16;;;;;;;;;3.00;2.00;;;;;20.08;46.66;101996.38;5040667;28;45415;-70
2022/06/12 01:21:29;;;;;;;;;1.00;1.00;;;;;20.02;46.83;101993.97;5039526;28;45634;-70
2022/06/12 01:24:04;;;;;;;;;0.75;0.75;;;;;20.03;47.14;101993.03;5007313;28;45411;-70
2022/06/12 01:26:29;;;;;;;;;5.00;3.00;;;;;20.05;47.22;102006.50;5046960;28;45423;-70
2022/06/12 01:29:06;;;;;;;;;1.75;1.75;;;;;20.01;47.43;102002.19;5041167;28;45434;-70
2022/06/12 01:31:40;;;;;;;;;1.50;0.75;;;;;20.02;47.39;102012.06;5028310;28;45328;-70
2022/06/12 01:34:29;;;;;;;;;3.00;0.25;;;;;19.99;47.56;102008.53;5039401;28;46257;-70
2022/06/12 01:37:27;;;;;;;;;1.00;1.00;;;;;19.97;46.89;102007.75;5054709;28;45338;-70
2022/06/12 01:40:16;;;;;;;;;1.00;1.00;;;;;19.96;47.13;102008.72;5031730;28;45524;-70
2022/06/12 01:43:12;;;;;;;;;2.00;1.00;;;;;19.94;47.17;102004.31;5040343;28;45478;-70
2022/06/12 01:46:17;;;;;;;;;2.50;1.50;;;;;19.89;47.05;102011.81;5037933;28;45506;-70
2022/06/12 01:49:23;;;;;;;;;2.50;1.00;;;;;19.82;47.03;102016.69;5038671;28;45440;-70
2022/06/12 01:52:03;;;;;;;;;1.00;1.00;;;;;19.78;47.40;102015.09;5019382;28;45445;-70
2022/06/12 01:54:41;;;;;;;;;2.50;1.50;;;;;19.75;47.21;102016.13;5040563;28;45368;-70
2022/06/12 01:57:14;;;;;;;;;1.00;1.00;;;;;19.70;46.97;102009.16;5037799;28;46694;-69
2022/06/12 01:59:49;;;;;;;;;1.00;1.00;;;;;19.62;47.37;102004.13;5040221;28;45296;-70
2022/06/12 02:02:32;;;;;;;;;1.00;1.00;;;;;19.62;47.27;102012.25;5028313;28;45473;-70
2022/06/12 02:05:52;;;;;;;;;1.00;1.00;;;;;19.66;47.56;102015.66;5040356;28;45457;-70
2022/06/12 02:08:51;;;;;;;;;2.00;0.50;;;;;19.67;47.64;102017.44;4998335;28;46264;-70
2022/06/12 02:14:10;;;;;;;;;2.75;0.75;;;;;19.55;47.01;102018.94;5039342;28;45219;-70
2022/06/12 02:16:41;;;;;;;;;0.50;0.50;;;;;19.51;47.43;102018.22;5026719;28;45467;-70
2022/06/12 02:19:20;;;;;;;;;1.00;1.00;;;;;19.53;47.71;102024.41;5038226;28;47891;-69
2022/06/12 02:21:53;;;;;;;;;1.00;1.00;;;;;19.50;47.89;102004.75;5037392;28;45422;-70
2022/06/12 02:24:29;;;;;;;;;2.00;1.00;;;;;19.56;47.18;102023.38;5040133;28;45228;-70
2022/06/12 02:27:07;;;;;;;;;1.75;1.75;;;;;19.48;47.00;102022.88;5045945;28;45305;-69
2022/06/12 02:29:44;;;;;;;;;1.00;0.75;;;;;19.38;47.67;102026.06;5038158;28;45328;-69
2022/06/12 02:32:16;;;;;;;;;0.75;0.75;;;;;19.31;47.86;102024.59;5038051;28;45601;-70
2022/06/12 02:34:48;;;;;;;;;2.25;0.75;;;;;19.31;48.02;102021.00;5038627;28;45273;-70
2022/06/12 02:37:22;;;;;;;;;1.75;1.00;;;;;19.41;48.13;102027.72;5038529;28;45247;-69
2022/06/12 02:40:00;;;;;;;;;1.00;1.00;;;;;19.36;47.81;102019.84;5040288;28;46363;-70
2022/06/12 02:42:32;;;;;;;;;1.00;1.00;;;;;19.37;47.96;102031.53;5022002;28;45797;-70
2022/06/12 02:45:06;;;;;;;;;3.25;2.00;;;;;19.41;48.05;102027.72;5039073;28;45360;-71
2022/06/12 02:47:33;;;;;;;;;1.00;1.00;;;;;19.36;47.51;102021.66;5039128;28;45415;-71
2022/06/12 02:50:00;;;;;;;;;1.50;1.00;;;;;19.39;47.43;102026.91;5038642;28;47431;-71
2022/06/12 02:52:48;;;;;;;;;1.00;1.00;;;;;19.31;47.49;102013.78;5038966;28;45234;-71
2022/06/12 02:55:25;;;;;;;;;1.00;1.00;;;;;19.22;47.39;102019.63;5055050;28;45363;-71
2022/06/12 02:58:06;;;;;;;;;3.25;1.00;;;;;19.11;47.87;102009.34;5039310;28;45415;-70
2022/06/12 03:00:48;;;;;;;;;1.00;1.00;;;;;19.03;47.96;102012.41;5025383;28;46184;-71
2022/06/12 03:03:22;;;;;;;;;2.00;1.50;;;;;19.10;48.38;102028.34;5038715;28;45459;-71
2022/06/12 03:05:51;;;;;;;;;1.25;1.00;;;;;19.13;48.35;102025.47;5039819;28;45273;-71
2022/06/12 03:08:21;;;;;;;;;3.00;0.75;;;;;19.09;48.22;102022.03;5039388;28;45454;-71
2022/06/12 03:10:51;;;;;;;;;1.00;1.00;;;;;19.03;47.97;102017.81;5034393;28;46444;-71
2022/06/12 03:13:20;;;;;;;;;2.00;1.00;;;;;19.03;48.66;102019.66;5042882;28;45290;-71
2022/06/12 03:15:53;;;;;;;;;1.50;0.00;;;;;18.93;48.42;102007.47;5043284;28;45264;-71
2022/06/12 03:18:34;;;;;;;;;1.00;1.00;;;;;19.01;48.05;102029.63;5042448;28;45447;-71
2022/06/12 03:21:41;;;;;;;;;3.25;2.00;;;;;19.00;48.20;102023.34;5038708;28;47163;-71
2022/06/12 03:24:25;;;;;;;;;3.25;2.00;;;;;18.95;48.49;102021.84;5000768;28;45349;-71
2022/06/12 03:27:02;;;;;;;;;1.25;1.25;;;;;18.94;48.38;102028.19;5039139;28;45326;-71
2022/06/12 03:29:46;;;;;;;;;2.00;1.25;;;;;18.89;48.64;102028.38;5042258;28;45397;-71
2022/06/12 03:32:18;;;;;;;;;2.00;1.00;;;;;18.87;48.51;102025.75;5042086;28;46573;-71
2022/06/12 03:35:23;;;;;;;;;2.50;1.75;;;;;18.83;48.44;102021.47;5040827;28;45492;-70
2022/06/12 03:38:08;;;;;;;;;2.25;1.00;;;;;18.78;48.41;102017.19;5000729;28;45595;-71
2022/06/12 03:40:53;;;;;;;;;2.25;1.25;;;;;18.71;48.77;102008.47;5040379;28;45355;-70
2022/06/12 03:44:00;;;;;;;;;2.00;1.00;;;;;18.74;48.53;102023.66;5042104;28;45251;-71
2022/06/12 03:46:53;;;;;;;;;4.00;1.00;;;;;18.70;48.52;102021.09;5032960;28;45285;-71
2022/06/12 03:49:40;;;;;;;;;1.75;1.75;;;;;18.73;49.13;102027.31;5032122;28;45233;-71
2022/06/12 03:52:17;;;;;;;;;0.75;0.75;;;;;18.75;48.69;102029.00;5040932;28;45374;-70
2022/06/12 03:54:54;;;;;;;;;1.00;1.00;;;;;18.67;49.06;102013.13;5040132;28;46828;-71
2022/06/12 03:58:03;;;;;;;;;1.00;1.00;;;;;18.71;49.01;102022.00;5029395;28;45312;-71
2022/06/12 04:00:40;;;;;;;;;1.50;1.50;;;;;18.66;48.87;102011.41;4999859;28;45375;-70
2022/06/12 04:03:14;;;;;;;;;3.00;2.00;;;;;18.75;49.47;102020.03;5048668;28;45530;-70
2022/06/12 04:05:50;;;;;;;;;1.00;1.00;;;;;18.74;49.39;102020.97;5057361;28;46854;-71
2022/06/12 04:08:23;;;;;;;;;1.00;1.00;;;;;18.78;49.21;102023.47;5042080;28;45316;-71
2022/06/12 04:10:49;;;;;;;;;3.50;1.50;;;;;18.79;49.08;102019.78;5033710;28;45236;-71
2022/06/12 04:13:16;;;;;;;;;3.00;1.75;;;;;18.78;48.77;102023.47;5041936;28;45240;-70
2022/06/12 04:16:06;;;;;;;;;2.50;2.00;;;;;18.73;48.84;102014.69;5042145;28;45371;-71
2022/06/12 04:18:33;;;;;;;;;1.75;1.75;;;;;18.69;49.41;102013.06;5030421;28;45581;-71
2022/06/12 04:21:13;;;;;;;;;2.00;2.00;;;;;18.70;48.84;102020.25;5041302;28;45463;-71
2022/06/12 04:23:43;;;;;;;;;4.00;1.25;;;;;18.60;49.34;102003.56;5041558;28;45645;-70
2022/06/12 04:27:00;;;;;;;;;4.00;2.00;;;;;18.67;49.70;102023.06;5057092;28;45962;-71
2022/06/12 04:29:33;;;;;;;;;1.75;0.75;;;;;18.57;49.68;102009.09;5007389;28;45370;-70
2022/06/12 04:32:03;;;;;;;;;2.50;2.00;;;;;18.59;49.37;102006.31;5041302;28;45311;-71
2022/06/12 04:34:39;;;;;;;;;1.00;1.00;;;;;18.65;50.08;102022.28;5057077;28;45454;-70
2022/06/12 04:37:17;;;;;;;;;1.25;1.25;;;;;18.60;50.01;102018.91;5041807;28;45530;-71
2022/06/12 04:39:44;;;;;;;;;2.50;1.50;;;;;18.66;49.73;102033.03;5037251;28;45352;-71
2022/06/12 04:42:11;;;;;;;;;1.75;1.75;;;;;18.56;49.65;102019.97;5056517;28;45359;-70
2022/06/12 04:44:36;;;;;;;;;4.75;2.50;;;;;18.61;50.09;102015.22;5041507;28;45454;-70
2022/06/12 04:47:04;;;;;;;;;2.00;2.00;;;;;18.64;49.87;102029.53;5041030;28;45379;-70
2022/06/12 04:49:33;;;;;;;;;1.50;1.25;;;;;18.57;49.95;102019.91;5039956;28;46642;-70
2022/06/12 04:52:01;;;;;;;;;0.50;0.50;;;;;18.60;50.14;102016.22;5037241;28;45422;-70
2022/06/12 04:54:27;;;;;;;;;3.00;1.75;;;;;18.58;50.20;102012.69;5041511;28;45324;-70
2022/06/12 04:56:53;;;;;;;;;2.00;1.00;;;;;18.58;49.69;102024.38;5041164;28;48374;-70
2022/06/12 04:59:20;;;;;;;;;1.00;1.00;;;;;18.58;50.16;102021.69;5040988;28;45315;-70
2022/06/12 05:01:47;;;;;;;;;2.00;2.00;;;;;18.59;49.96;102018.00;5040566;28;45277;-70
2022/06/12 05:04:14;;;;;;;;;3.25;2.00;;;;;18.55;49.82;102010.13;5056516;28;45264;-70
2022/06/12 05:06:40;;;;;;;;;2.75;2.00;;;;;18.57;49.45;102002.81;5040806;28;45293;-70
2022/06/12 05:09:07;;;;;;;;;1.00;1.00;;;;;18.62;49.63;102015.16;5041020;28;45302;-70
2022/06/12 05:11:32;;;;;;;;;0.75;0.50;;;;;18.59;49.15;102018.00;5040896;28;45369;-70
2022/06/12 05:13:58;;;;;;;;;3.25;2.00;;;;;18.57;49.46;102019.91;5056510;28;46439;-70
2022/06/12 05:16:31;;;;;;;;;1.00;1.00;;;;;18.59;49.83;102014.44;5040675;28;46206;-70
2022/06/12 05:18:57;;;;;;;;;1.00;1.00;;;;;18.61;48.91;102013.44;5041021;28;45323;-70
2022/06/12 05:21:24;;;;;;;;;3.50;2.00;;;;;18.53;49.12;101996.69;5054646;28;45497;-70
2022/06/12 05:23:49;;;;;;;;;1.00;1.00;;;;;18.55;49.77;101999.31;5040907;28;45295;-70
2022/06/12 05:26:17;;;;;;;;;2.00;2.00;;;;;18.59;49.78;102003.63;5040676;28;45332;-71
2022/06/12 05:28:43;;;;;;;;;1.00;1.00;;;;;18.58;49.49;102010.00;5040487;28;45228;-71
2022/06/12 05:31:09;;;;;;;;;3.75;1.00;;;;;18.58;50.05;102000.06;5040187;28;45319;-71
2022/06/12 05:33:34;;;;;;;;;1.75;1.75;;;;;18.67;49.84;102009.56;5039780;28;45458;-71
2022/06/12 05:35:59;;;;;;;;;2.25;1.25;;;;;18.67;49.62;102006.84;5056121;28;47729;-71
2022/06/12 05:38:25;;;;;;;;;2.00;1.50;;;;;18.71;49.39;102005.78;5041274;28;45266;-71
2022/06/12 05:40:50;;;;;;;;;1.25;1.25;;;;;18.61;49.45;101999.00;5040643;28;45713;-70
2022/06/12 05:43:16;;;;;;;;;1.25;0.50;;;;;18.68;49.68;102011.31;5040312;28;45561;-70
2022/06/12 05:45:42;;;;;;;;;3.75;1.00;;;;;18.70;49.84;102009.41;5040489;28;46809;-70
2022/06/12 05:48:16;;;;;;;;;3.75;0.50;;;;;18.68;49.46;102003.22;5040086;28;45640;-70
2022/06/12 05:50:56;;;;;;;;;2.00;1.50;;;;;18.81;49.49;102020.63;5038582;28;45469;-71
2022/06/12 05:53:24;;;;;;;;;3.25;1.00;;;;;18.84;49.22;102025.94;5040373;28;45492;-70
2022/06/12 05:55:50;;;;;;;;;1.00;1.00;;;;;18.77;49.03;102013.59;5040600;28;45238;-70
2022/06/12 05:58:16;;;;;;;;;2.75;2.25;;;;;18.76;49.09;102021.75;5039952;28;45549;-70
2022/06/12 06:00:43;;;;;;;;;1.00;1.00;;;;;18.80;49.35;102021.56;5039956;28;45422;-70
2022/06/12 06:03:09;;;;;;;;;3.50;3.00;;;;;18.77;49.26;102029.81;5039388;28;45482;-70
2022/06/12 06:05:39;;;;;;;;;3.00;1.75;;;;;18.73;49.10;102025.50;5040097;28;46353;-71
2022/06/12 06:08:05;;;;;;;;;4.00;2.00;;;;;18.80;48.96;102031.50;5040160;28;45261;-70
2022/06/12 06:10:31;;;;;;;;;4.25;0.75;;;;;18.78;49.06;102031.56;5039812;28;45480;-71
2022/06/12 06:12:57;;;;;;;;;1.00;1.00;;;;;18.75;48.81;102023.59;5039922;28;45588;-71
2022/06/12 06:15:22;;;;;;;;;3.00;2.00;;;;;18.75;48.70;102034.41;5055708;28;47175;-70
2022/06/12 06:17:48;;;;;;;;;2.00;2.00;;;;;18.79;49.02;102041.44;5055282;28;45960;-70
2022/06/12 06:20:20;;;;;;;;;3.50;2.00;;;;;18.82;48.08;102045.84;5054767;28;45402;-70
2022/06/12 06:22:46;;;;;;;;;1.00;1.00;;;;;18.83;48.88;102044.94;5040248;28;45461;-70
2022/06/12 06:25:11;;;;;;;;;2.75;2.00;;;;;18.78;48.64;102034.28;5039862;28;45597;-69
2022/06/12 06:27:36;;;;;;;;;1.50;1.50;;;;;18.84;49.12;102044.88;5038615;28;45664;-70
2022/06/12 06:30:03;;;;;;;;;3.00;2.00;;;;;18.84;49.13;102043.97;5040017;28;45253;-70
2022/06/12 06:32:29;;;;;;;;;4.50;2.00;;;;;18.93;48.57;102050.75;5054244;28;45895;-70
2022/06/12 06:34:54;;;;;;;;;3.00;1.75;;;;;18.95;48.06;102043.47;5038700;28;46086;-69
2022/06/12 06:37:19;;;;;;;;;3.00;1.00;;;;;18.91;48.21;102041.84;5039069;28;45450;-69
2022/06/12 06:39:45;;;;;;;;;1.75;1.00;;;;;18.93;48.55;102039.94;5040257;28;45388;-68
2022/06/12 06:42:11;;;;;;;;;2.25;2.00;;;;;18.88;48.60;102041.06;5037267;28;45602;-66
2022/06/12 06:47:21;;;;;;;;;2.50;1.25;;;;;18.94;48.21;102039.00;5038597;28;45398;-67
2022/06/12 06:49:47;;;;;;;;;1.00;1.00;;;;;18.95;48.06;102044.34;5039351;28;45401;-66
2022/06/12 06:52:13;;;;;;;;;2.50;1.75;;;;;18.91;47.64;102044.56;5039589;28;45390;-66
2022/06/12 06:54:38;;;;;;;;;3.00;2.50;;;;;18.94;48.27;102048.00;5054306;28;48215;-67
2022/06/12 06:57:05;;;;;;;;;2.00;2.00;;;;;18.95;48.22;102047.06;5039430;28;45297;-66
2022/06/12 06:59:31;;;;;;;;;1.00;1.00;;;;;18.82;48.51;102014.25;5038573;28;45420;-67
2022/06/12 07:01:56;;;;;;;;;2.75;2.75;;;;;18.80;47.89;102005.34;5038120;28;45554;-66
2022/06/12 07:04:22;;;;;;;;;2.75;1.00;;;;;19.00;48.29;102033.31;5038902;28;46421;-66
2022/06/12 07:06:47;;;;;;;;;1.50;1.00;;;;;19.06;48.47;102039.31;5037080;28;45453;-67
2022/06/12 07:09:12;;;;;;;;;2.00;1.00;;;;;19.11;48.36;102019.25;5039371;28;45312;-67
2022/06/12 07:11:38;;;;;;;;;2.00;1.00;;;;;19.22;47.77;102041.28;5037679;28;45652;-67
2022/06/12 07:14:03;;;;;;;;;1.00;0.25;;;;;19.27;47.63;102050.06;5037946;28;45480;-67
2022/06/12 07:16:31;;;;;;;;;2.75;1.00;;;;;19.33;47.72;102051.56;5054352;28;45332;-67
2022/06/12 07:18:56;;;;;;;;;2.25;1.50;;;;;19.34;47.19;102042.50;5039157;28;45257;-67
2022/06/12 07:21:22;;;;;;;;;4.50;1.50;;;;;19.47;48.07;102048.22;5038759;28;45257;-67
2022/06/12 07:23:48;;;;;;;;;1.00;1.00;;;;;19.52;47.48;102057.84;5038644;28;46085;-67
2022/06/12 07:26:25;;;;;;;;;1.50;1.50;;;;;19.51;46.92;102047.09;5039168;28;45450;-67
2022/06/12 07:28:50;;;;;;;;;1.00;1.00;;;;;19.52;46.65;102051.56;5046602;28;45263;-67
2022/06/12 07:31:18;;;;;;;;;2.50;2.00;;;;;19.50;47.07;102046.22;5044669;28;45711;-67
2022/06/12 07:33:43;;;;;;;;;3.00;2.00;;;;;19.58;47.29;102062.97;5037081;28;45631;-67
2022/06/12 07:36:11;;;;;;;;;0.75;0.50;;;;;19.62;47.42;102059.16;5038615;28;45584;-67
2022/06/12 07:38:38;;;;;;;;;2.00;1.00;;;;;19.67;47.13;102056.22;5039311;28;45264;-67
2022/06/12 07:41:06;;;;;;;;;1.75;1.00;;;;;19.66;47.33;102040.03;5036999;28;45194;-67
2022/06/12 07:43:34;;;;;;;;;2.25;1.00;;;;;19.76;46.87;102057.63;5037578;28;48727;-67
2022/06/12 07:46:01;;;;;;;;;5.00;2.25;;;;;19.84;47.04;102062.66;5036928;28;45326;-67
2022/06/12 07:48:26;;;;;;;;;3.50;2.50;;;;;19.87;46.72;102052.53;5061334;28;45235;-67
2022/06/12 07:50:53;;;;;;;;;3.00;3.00;;;;;19.89;46.25;102045.19;5037326;28;46052;-67
2022/06/12 07:53:20;;;;;;;;;1.00;1.00;;;;;19.92;46.32;102053.19;5054315;28;46356;-67
2022/06/12 07:55:46;;;;;;;;;1.00;1.00;;;;;19.83;46.44;102036.50;5036750;28;45644;-67
2022/06/12 07:58:13;;;;;;;;;1.75;1.75;;;;;19.98;46.32;102057.44;5038928;28;45383;-67
2022/06/12 08:00:39;;;;;;;;;1.75;1.75;;;;;19.99;46.72;102040.19;5039854;28;45599;-67
2022/06/12 08:03:05;;;;;;;;;1.75;1.00;;;;;20.15;46.67;102051.13;5041765;28;46160;-67
2022/06/12 08:05:32;;;;;;;;;3.00;2.00;;;;;20.22;46.80;102047.13;5040229;28;45527;-67
2022/06/12 08:07:58;;;;;;;;;4.00;1.00;;;;;20.24;46.71;102039.78;5039673;28;45736;-67
2022/06/12 08:10:24;;;;;;;;;3.25;2.50;;;;;20.34;45.82;102057.31;5041756;28;45510;-67
2022/06/12 08:12:49;;;;;;;;;1.75;1.00;;;;;20.35;45.92;102048.25;5040930;28;45496;-67
2022/06/12 08:15:20;;;;;;;;;1.00;1.00;;;;;20.36;45.85;102046.41;5040876;28;45477;-66
2022/06/12 08:17:45;;;;;;;;;1.50;1.50;;;;;20.26;46.20;102021.59;5040811;28;45489;-67
2022/06/12 08:20:24;;;;;;;;;4.00;2.00;;;;;20.48;46.48;102050.28;5041402;28;45443;-67
2022/06/12 08:22:59;;;;;;;;;2.75;2.75;;;;;20.38;46.71;102030.94;5039427;28;48232;-67
2022/06/12 08:25:27;;;;;;;;;4.75;2.00;;;;;20.54;45.96;102045.41;5039404;28;45690;-67
2022/06/12 08:27:53;;;;;;;;;2.75;1.00;;;;;20.53;46.37;102035.53;5041130;28;45352;-67
2022/06/12 08:30:19;;;;;;;;;1.75;1.75;;;;;20.63;45.85;102040.50;5039804;28;45366;-67
2022/06/12 08:32:46;;;;;;;;;2.25;2.00;;;;;20.64;44.82;102044.97;5038185;28;45544;-67
2022/06/12 08:35:18;;;;;;;;;5.00;2.25;;;;;20.62;45.40;102028.75;5055113;28;45407;-67
2022/06/12 08:37:44;;;;;;;;;4.00;2.00;;;;;20.64;45.14;102028.69;5057279;28;45426;-67
2022/06/12 08:40:28;;;;;;;;;10.00;2.75;;;;;20.72;45.13;102037.28;5041882;28;45345;-67
2022/06/12 08:43:08;;;;;;;;;3.25;2.00;;;;;20.76;45.00;102035.28;5040962;28;45482;-67
2022/06/12 08:45:42;;;;;;;;;2.25;2.00;;;;;20.79;45.22;102032.41;5037884;28;45595;-67
2022/06/12 08:48:19;;;;;;;;;1.00;1.00;;;;;20.75;44.82;102015.41;5040709;28;45454;-67
2022/06/12 08:50:52;;;;;;;;;1.25;1.25;;;;;20.88;44.54;102027.34;5041702;28;45301;-67
2022/06/12 08:53:30;;;;;;;;;2.00;0.75;;;;;20.98;44.22;102019.56;5041420;28;46800;-67
2022/06/12 08:56:06;;;;;;;;;2.25;2.25;;;;;20.99;44.44;102018.59;5040249;28;45419;-67
2022/06/12 08:58:41;;;;;;;;;2.50;1.25;;;;;21.10;44.09;102026.16;5029575;28;45368;-67
2022/06/12 09:01:08;;;;;;;;;1.75;1.75;;;;;21.09;43.63;102018.94;5055066;28;45446;-67
2022/06/12 09:03:41;;;;;;;;;4.50;2.00;;;;;21.10;44.23;102013.44;5040438;28;45463;-67
2022/06/12 09:06:06;;;;;;;;;1.00;1.00;;;;;21.11;44.05;102011.59;5040531;28;45369;-67
2022/06/12 09:08:39;;;;;;;;;1.00;1.00;;;;;21.08;42.81;102011.75;5056204;28;45414;-66
2022/06/12 09:11:15;;;;;;;;;2.00;0.75;;;;;21.17;43.43;102018.53;5040751;28;45426;-66
2022/06/12 09:13:50;;;;;;;;;1.25;1.25;;;;;21.20;43.49;102015.59;5041093;28;45228;-66
2022/06/12 09:16:41;;;;;;;;;3.50;1.00;;;;;21.28;43.46;102008.81;5027537;28;45566;-66
2022/06/12 09:19:16;;;;;;;;;1.25;1.25;;;;;21.30;42.93;102003.28;5056173;28;45257;-66
2022/06/12 09:21:52;;;;;;;;;1.25;1.25;;;;;21.31;43.22;102004.16;5041038;28;45403;-66
2022/06/12 09:24:57;;;;;;;;;2.75;2.00;;;;;21.32;43.29;101995.91;5040911;28;46603;-66
2022/06/12 09:27:23;;;;;;;;;1.75;1.75;;;;;21.41;43.70;102013.50;5038523;28;45573;-66
2022/06/12 09:29:54;;;;;;;;;1.00;1.00;;;;;21.46;43.50;102014.13;5039835;28;45259;-66
2022/06/12 09:32:32;;;;;;;;;0.50;0.50;;;;;21.46;43.46;102001.41;5040050;28;45485;-67
2022/06/12 09:35:28;;;;;;;;;2.00;2.00;;;;;21.56;43.05;101998.19;5038325;28;46523;-65
2022/06/12 09:40:43;;;;;;;;;3.50;1.50;;;;;21.61;43.38;102007.81;5039034;28;45746;-66
2022/06/12 09:43:30;;;;;;;;;1.75;1.00;;;;;21.65;43.33;102008.50;5038876;28;45547;-66
2022/06/12 09:46:07;;;;;;;;;1.00;1.00;;;;;21.61;42.88;101996.94;5039148;28;45328;-66
2022/06/12 09:48:55;;;;;;;;;1.00;1.00;;;;;21.71;43.16;102002.72;5038860;28;45444;-66
2022/06/12 09:51:56;;;;;;;;;4.00;1.00;;;;;21.77;42.71;102006.94;5054723;28;45540;-66
2022/06/12 09:54:59;;;;;;;;;2.00;1.00;;;;;21.83;43.25;101999.28;5032948;28;45575;-64
2022/06/12 09:57:38;;;;;;;;;1.25;1.25;;;;;21.88;42.87;102004.41;5034149;28;48191;-65
2022/06/12 10:00:05;;;;;;;;;1.25;1.00;;;;;21.91;42.99;102008.81;5039178;28;45288;-65
2022/06/12 10:02:33;;;;;;;;;1.50;1.00;;;;;21.93;43.55;102006.88;5033514;28;45474;-66
2022/06/12 10:05:05;;;;;;;;;2.00;2.00;;;;;21.97;42.95;102006.59;5036794;28;45410;-66
2022/06/12 10:07:46;;;;;;;;;2.50;1.50;;;;;21.97;42.38;102000.28;5038051;28;47929;-66
2022/06/12 10:10:24;;;;;;;;;3.00;2.00;;;;;22.04;42.12;102001.66;5035798;28;45166;-66
2022/06/12 10:12:55;;;;;;;;;3.00;2.00;;;;;21.96;42.53;102001.25;5035616;28;45240;-66
2022/06/12 10:15:43;;;;;;;;;2.00;2.00;;;;;21.97;43.50;101990.28;5040016;28;45395;-66
2022/06/12 10:18:23;;;;;;;;;3.00;1.75;;;;;22.05;42.80;102000.66;5052342;28;48033;-66
2022/06/12 10:20:54;;;;;;;;;1.50;1.50;;;;;22.08;43.10;101995.06;5054607;28;45823;-66
2022/06/12 10:23:20;;;;;;;;;1.00;1.00;;;;;22.15;42.85;101992.81;5053952;28;45448;-66
2022/06/12 10:25:55;;;;;;;;;2.00;2.00;;;;;22.14;43.37;101986.53;5055385;28;45578;-66
2022/06/12 10:28:32;;;;;;;;;1.00;1.00;;;;;22.20;43.00;101988.88;5035628;28;45465;-66
2022/06/12 10:31:12;;;;;;;;;1.25;1.00;;;;;22.26;43.40;101982.16;5037860;28;45414;-67
2022/06/12 10:34:05;;;;;;;;;3.00;3.00;;;;;22.25;42.66;101971.38;5054609;28;45362;-66
2022/06/12 10:36:33;;;;;;;;;4.00;2.00;;;;;22.34;42.74;101981.75;5037720;28;45439;-66
2022/06/12 10:39:19;;;;;;;;;4.25;2.00;;;;;22.36;42.01;101979.78;5040096;28;46164;-66
2022/06/12 10:41:54;;;;;;;;;2.00;2.00;;;;;22.39;42.69;101979.59;5039704;28;45380;-66
2022/06/12 10:44:29;;;;;;;;;1.75;1.75;;;;;22.42;41.82;101978.50;5036545;28;45558;-66
2022/06/12 10:46:54;;;;;;;;;1.75;1.75;;;;;22.42;42.73;101979.41;5049659;28;45952;-66
2022/06/12 10:49:24;;;;;;;;;2.75;2.00;;;;;22.34;42.39;101960.84;5038686;28;45347;-66
2022/06/12 10:52:02;;;;;;;;;5.75;5.25;;;;;22.38;42.77;101954.22;5053258;28;45469;-66
2022/06/12 10:54:28;;;;;;;;;2.00;2.00;;;;;22.36;42.04;101956.16;5038357;28;45504;-66
2022/06/12 10:57:33;;;;;;;;;2.50;2.50;;;;;22.49;42.00;101964.44;5037639;28;45340;-65
2022/06/12 11:00:04;;;;;;;;;2.75;2.75;;;;;22.51;41.83;101961.63;5033182;28;46394;-66
2022/06/12 11:02:33;;;;;;;;;1.25;1.00;;;;;22.54;41.21;101961.44;5038779;28;45592;-66
2022/06/12 11:05:16;;;;;;;;;1.50;1.50;;;;;22.56;41.13;101963.06;5038144;28;45381;-66
2022/06/12 11:07:58;;;;;;;;;16.50;13.25;;;;;22.58;41.55;101950.22;5054428;28;46200;-66
2022/06/12 11:11:03;;;;;;;;;2.00;2.00;;;;;22.56;40.05;101938.56;5051183;28;48084;-66
2022/06/12 11:13:53;;;;;;;;;3.25;3.25;;;;;22.59;41.36;101951.13;5031805;28;45804;-66
2022/06/12 11:16:37;;;;;;;;;5.00;4.00;;;;;22.64;41.18;101935.38;5039002;28;45501;-65
2022/06/12 11:19:29;;;;;;;;;4.25;4.00;;;;;22.65;41.78;101925.34;5039487;28;45375;-66
2022/06/12 11:22:15;;;;;;;;;4.25;2.75;;;;;22.75;41.92;101930.13;5037820;28;45445;-65
2022/06/12 11:24:46;;;;;;;;;3.75;2.00;;;;;22.82;41.66;101930.59;5054534;28;45506;-66
2022/06/12 11:27:26;;;;;;;;;3.00;3.00;;;;;22.81;41.38;101917.06;5039367;28;45347;-66
2022/06/12 11:30:01;;;;;;;;;5.50;4.00;;;;;22.87;42.39;101923.00;5032955;28;45364;-66
2022/06/12 11:32:46;;;;;;;;;2.25;2.25;;;;;22.94;42.27;101908.00;5040956;28;45448;-66
2022/06/12 11:35:49;;;;;;;;;3.00;3.00;;;;;23.00;41.58;101909.41;5058173;28;45629;-66
2022/06/12 11:38:34;;;;;;;;;5.00;3.00;;;;;23.05;40.98;101912.72;5038026;28;45357;-66
2022/06/12 11:41:30;;;;;;;;;3.25;3.00;;;;;23.07;41.22;101905.38;5041268;28;45462;-66
2022/06/12 11:44:29;;;;;;;;;2.25;2.25;;;;;23.09;40.94;101908.00;5042064;28;46086;-66
2022/06/12 11:47:23;;;;;;;;;2.00;2.00;;;;;23.15;40.84;101899.38;5055318;28;45759;-66
2022/06/12 11:50:09;;;;;;;;;1.25;1.25;;;;;23.19;40.44;101894.59;5036390;28;45446;-66
2022/06/12 11:53:00;;;;;;;;;3.00;3.00;;;;;23.21;40.46;101896.25;5056507;28;46114;-66
2022/06/12 11:55:36;;;;;;;;;4.00;3.00;;;;;23.17;40.00;101877.50;5040543;28;47263;-66
2022/06/12 11:58:22;;;;;;;;;1.75;1.75;;;;;23.20;39.83;101878.16;5042325;28;45306;-66
2022/06/12 12:01:04;;;;;;;;;2.00;2.00;;;;;23.21;39.92;101898.13;5031798;28;45332;-66
2022/06/12 12:04:08;;;;;;;;;2.50;2.50;;;;;23.25;40.22;101886.03;5041298;28;45326;-66
2022/06/12 12:06:52;;;;;;;;;4.25;2.75;;;;;23.28;39.99;101883.09;5007969;28;48053;-66
2022/06/12 12:09:23;;;;;;;;;1.75;1.75;;;;;23.28;39.29;101874.91;5041385;28;45556;-66